Milwaukee, Wisconsin
Traffic Map
Current Weather Conditions
Milwaukee, Wisconsin
Overcast
Overcast
32°
Feels Like: 21°
Wind Chill: 21° Ceiling: 7000
Heat Index: 32° Visibility: 10mi
Dew Point: 18° Wind: 16mph
Humidity: 56% Direction: 210° (SSW)
Pressure: 29.91in Gusts: 24mph
Raw Report DataKMKE 261452Z 21014G21KT 10SM FEW050 BKN070 OVC080 00/M08 A2991 RMK AO2 SLP138 T00001078 56016
Traffic Incident Summary
Active as of:
Severity:
Category:
InformationThere was an issue retrieving the traffic information for this location. Please try a different location or try again shortly.
Advertisements
Track Severe Weather on mobile